Pelham, Georgia
Current Conditions -  °F | °C
As of 4:55 PM on Friday 31 Oct 2014 (Local Time) from KMGR Reporting Station
Clear Clear  
Wind Chill: 70°   Ceiling: Unl
Heat Index: 70°   Visibility: 10mi
Dew Point: 41°   Wind: 7mph
Humidity: 35%   Direction: 310°NW
Pressure: 29.85"   Gusts: NA
Location:  31.13°N, 84.15°W
Report Text: KMGR 312055Z AUTO 31006KT 10SM CLR 21/05 A2985 RMK AO2
Loading
Personal Weather Stations






























Interactive Weather Map
Tropical Storm Tracking
New forecast layout! Learn more

10-Day Weather Forecast

Advertisements
Track Severe Weather on mobile